createdAt,value
2023-04-27T00:00:34.433Z,94681.00
2023-04-27T00:01:34.490Z,94677.00
2023-04-27T00:02:34.640Z,94677.00
2023-04-27T00:03:34.584Z,94677.00
2023-04-27T00:04:34.654Z,94675.00
2023-04-27T00:05:34.667Z,94673.00
2023-04-27T00:06:34.639Z,94675.00
2023-04-27T00:07:34.612Z,94679.00
2023-04-27T00:08:34.629Z,94670.00
2023-04-27T00:09:34.627Z,94677.00
2023-04-27T00:10:34.672Z,94675.00
2023-04-27T00:11:34.673Z,94675.00
2023-04-27T00:12:34.681Z,94675.00
2023-04-27T00:13:34.716Z,94673.00
2023-04-27T00:14:34.736Z,94673.00
2023-04-27T00:15:34.767Z,94675.00
2023-04-27T00:16:34.877Z,94675.00
2023-04-27T00:17:34.759Z,94673.00
2023-04-27T00:18:34.747Z,94675.00
2023-04-27T00:19:34.814Z,94671.00
2023-04-27T00:20:34.778Z,94673.00
2023-04-27T00:21:34.781Z,94668.00
2023-04-27T00:22:34.815Z,94670.00
2023-04-27T00:23:34.848Z,94671.00
2023-04-27T00:24:34.815Z,94670.00
2023-04-27T00:25:34.869Z,94671.00
2023-04-27T00:26:34.872Z,94671.00
2023-04-27T00:27:34.880Z,94670.00
2023-04-27T00:28:34.841Z,94670.00
2023-04-27T00:29:34.891Z,94670.00
2023-04-27T00:30:34.917Z,94665.00
2023-04-27T00:31:34.881Z,94663.00
2023-04-27T00:32:34.915Z,94660.00
2023-04-27T00:33:34.874Z,94660.00
2023-04-27T00:34:34.858Z,94660.00
2023-04-27T00:35:34.887Z,94658.00
2023-04-27T00:36:34.870Z,94660.00
2023-04-27T00:37:34.839Z,94662.00
2023-04-27T00:38:35.425Z,94660.00
2023-04-27T00:39:34.878Z,94660.00
2023-04-27T00:40:34.932Z,94656.00
2023-04-27T00:41:34.893Z,94658.00
2023-04-27T00:42:34.908Z,94660.00
2023-04-27T00:43:34.886Z,94658.00
2023-04-27T00:44:34.917Z,94656.00
2023-04-27T00:45:34.939Z,94654.00
2023-04-27T00:46:34.954Z,94654.00
2023-04-27T00:47:35.020Z,94654.00
2023-04-27T00:48:34.952Z,94654.00
2023-04-27T00:49:34.935Z,94654.00
2023-04-27T00:50:34.971Z,94654.00
2023-04-27T00:51:34.930Z,94654.00
2023-04-27T00:52:34.962Z,94654.00
2023-04-27T00:53:34.939Z,94652.00
2023-04-27T00:54:34.949Z,94656.00
2023-04-27T00:55:34.990Z,94656.00
2023-04-27T00:56:34.973Z,94658.00
2023-04-27T00:57:35.026Z,94658.00
2023-04-27T00:58:35.032Z,94656.00
2023-04-27T00:59:34.971Z,94654.00
2023-04-27T01:00:35.068Z,94654.00
2023-04-27T01:01:35.102Z,94650.00
2023-04-27T01:02:35.054Z,94654.00
2023-04-27T01:03:35.210Z,94656.00
2023-04-27T01:04:35.045Z,94656.00
2023-04-27T01:05:34.996Z,94656.00
2023-04-27T01:06:34.954Z,94654.00
2023-04-27T01:07:34.988Z,94656.00
2023-04-27T01:08:35.067Z,94658.00
2023-04-27T01:09:34.944Z,94658.00
2023-04-27T01:10:34.957Z,94660.00
2023-04-27T01:11:34.969Z,94660.00
2023-04-27T01:12:34.993Z,94658.00
2023-04-27T01:13:35.028Z,94660.00
2023-04-27T01:14:35.066Z,94658.00
2023-04-27T01:15:34.969Z,94656.00
2023-04-27T01:16:35.096Z,94658.00
2023-04-27T01:17:35.044Z,94656.00
2023-04-27T01:18:34.999Z,94656.00
2023-04-27T01:19:34.994Z,94654.00
2023-04-27T01:20:34.999Z,94652.00
2023-04-27T01:21:35.034Z,94650.00
2023-04-27T01:22:35.064Z,94650.00
2023-04-27T01:23:35.000Z,94650.00
2023-04-27T01:24:35.033Z,94648.00
2023-04-27T01:25:35.027Z,94648.00
2023-04-27T01:26:34.993Z,94648.00
2023-04-27T01:27:34.988Z,94650.00
2023-04-27T01:28:34.956Z,94650.00
2023-04-27T01:29:34.956Z,94648.00
2023-04-27T01:30:35.472Z,94650.00
2023-04-27T01:31:35.028Z,94640.00
2023-04-27T01:32:34.980Z,94648.00
2023-04-27T01:33:34.970Z,94638.00
2023-04-27T01:34:34.973Z,94638.00
2023-04-27T01:35:34.996Z,94648.00
2023-04-27T01:36:34.949Z,94640.00
2023-04-27T01:37:34.965Z,94640.00
2023-04-27T01:38:34.999Z,94650.00
2023-04-27T01:39:34.982Z,94648.00
2023-04-27T01:40:34.974Z,94648.00
2023-04-27T01:41:34.971Z,94648.00
2023-04-27T01:42:34.978Z,94640.00
2023-04-27T01:43:34.944Z,94640.00
2023-04-27T01:44:35.009Z,94636.00
2023-04-27T01:45:34.982Z,94640.00
2023-04-27T01:46:35.094Z,94638.00
2023-04-27T01:47:35.067Z,94640.00
2023-04-27T01:48:35.018Z,94636.00
2023-04-27T01:49:35.052Z,94636.00
2023-04-27T01:50:35.060Z,94636.00
2023-04-27T01:51:35.024Z,94636.00
2023-04-27T01:52:35.060Z,94636.00
2023-04-27T01:53:35.071Z,94634.00
2023-04-27T01:54:35.030Z,94636.00
2023-04-27T01:55:35.027Z,94636.00
2023-04-27T01:56:35.042Z,94634.00
2023-04-27T01:57:35.034Z,94634.00
2023-04-27T01:58:35.063Z,94634.00
2023-04-27T01:59:35.026Z,94634.00
2023-04-27T02:00:35.036Z,94640.00
2023-04-27T02:01:35.061Z,94638.00
2023-04-27T02:02:35.119Z,94640.00
2023-04-27T02:03:35.158Z,94648.00
2023-04-27T02:04:35.018Z,94640.00
2023-04-27T02:05:35.017Z,94650.00
2023-04-27T02:06:35.008Z,94648.00
2023-04-27T02:07:35.014Z,94648.00
2023-04-27T02:08:34.996Z,94648.00
2023-04-27T02:09:34.986Z,94656.00
2023-04-27T02:10:35.020Z,94660.00
2023-04-27T02:11:34.988Z,94662.00
2023-04-27T02:12:34.991Z,94658.00
2023-04-27T02:13:34.985Z,94656.00
2023-04-27T02:14:34.992Z,94656.00
2023-04-27T02:15:35.016Z,94654.00
2023-04-27T02:16:35.139Z,94654.00
2023-04-27T02:17:35.062Z,94648.00
2023-04-27T02:18:35.003Z,94656.00
2023-04-27T02:19:34.984Z,94656.00
2023-04-27T02:20:35.004Z,94660.00
2023-04-27T02:21:35.000Z,94665.00
2023-04-27T02:22:34.984Z,94665.00
2023-04-27T02:23:34.982Z,94671.00
2023-04-27T02:24:34.973Z,94675.00
2023-04-27T02:25:35.039Z,94673.00
2023-04-27T02:26:34.997Z,94675.00
2023-04-27T02:27:35.031Z,94679.00
2023-04-27T02:28:34.951Z,94677.00
2023-04-27T02:29:34.976Z,94679.00
2023-04-27T02:30:35.035Z,94677.00
2023-04-27T02:31:35.084Z,94677.00
2023-04-27T02:32:34.973Z,94675.00
2023-04-27T02:33:34.967Z,94671.00
2023-04-27T02:34:34.962Z,94671.00
2023-04-27T02:35:34.989Z,94673.00
2023-04-27T02:36:34.985Z,94677.00
2023-04-27T02:37:35.024Z,94683.00
2023-04-27T02:38:34.963Z,94683.00
2023-04-27T02:39:35.001Z,94681.00
2023-04-27T02:40:34.969Z,94679.00
2023-04-27T02:41:34.982Z,94679.00
2023-04-27T02:42:34.977Z,94679.00
2023-04-27T02:43:34.971Z,94681.00
2023-04-27T02:44:34.978Z,94675.00
2023-04-27T02:45:34.996Z,94675.00
2023-04-27T02:46:35.061Z,94673.00
2023-04-27T02:47:35.034Z,94671.00
2023-04-27T02:48:34.965Z,94671.00
2023-04-27T02:49:36.749Z,94671.00
2023-04-27T02:50:34.992Z,94671.00
2023-04-27T02:51:34.979Z,94671.00
2023-04-27T02:52:34.955Z,94673.00
2023-04-27T02:53:34.959Z,94673.00
2023-04-27T02:54:34.921Z,94673.00
2023-04-27T02:55:34.944Z,94670.00
2023-04-27T02:56:34.913Z,94668.00
2023-04-27T02:57:34.921Z,94665.00
2023-04-27T02:58:34.924Z,94665.00
2023-04-27T02:59:34.862Z,94665.00
2023-04-27T03:00:34.877Z,94662.00
2023-04-27T03:01:34.914Z,94662.00
2023-04-27T03:02:35.057Z,94662.00
2023-04-27T03:03:35.082Z,94660.00
2023-04-27T03:04:34.883Z,94663.00
2023-04-27T03:05:34.869Z,94662.00
2023-04-27T03:06:34.818Z,94662.00
2023-04-27T03:07:34.870Z,94663.00
2023-04-27T03:08:34.827Z,94663.00
2023-04-27T03:09:34.813Z,94668.00
2023-04-27T03:10:34.839Z,94668.00
2023-04-27T03:11:36.199Z,94671.00
2023-04-27T03:12:34.905Z,94670.00
2023-04-27T03:13:34.898Z,94673.00
2023-04-27T03:14:34.928Z,94670.00
2023-04-27T03:15:34.896Z,94668.00
2023-04-27T03:16:34.958Z,94668.00
2023-04-27T03:17:35.045Z,94663.00
2023-04-27T03:18:34.901Z,94665.00
2023-04-27T03:19:34.909Z,94668.00
2023-04-27T03:20:34.935Z,94665.00
2023-04-27T03:21:35.003Z,94663.00
2023-04-27T03:22:34.981Z,94663.00
2023-04-27T03:23:35.050Z,94663.00
2023-04-27T03:24:35.031Z,94670.00
2023-04-27T03:25:34.992Z,94671.00
2023-04-27T03:26:35.008Z,94675.00
2023-04-27T03:27:34.989Z,94675.00
2023-04-27T03:28:35.022Z,94679.00
2023-04-27T03:29:35.039Z,94679.00
2023-04-27T03:30:35.020Z,94681.00
2023-04-27T03:31:35.041Z,94685.00
2023-04-27T03:32:35.167Z,94689.00
2023-04-27T03:33:35.033Z,94689.00
2023-04-27T03:34:35.038Z,94691.00
2023-04-27T03:35:35.080Z,94691.00
2023-04-27T03:36:35.096Z,94693.00
2023-04-27T03:37:35.108Z,94691.00
2023-04-27T03:38:35.102Z,94691.00
2023-04-27T03:39:35.050Z,94689.00
2023-04-27T03:40:35.514Z,94687.00
2023-04-27T03:41:35.060Z,94687.00
2023-04-27T03:42:35.065Z,94683.00
2023-04-27T03:43:35.056Z,94685.00
2023-04-27T03:44:35.084Z,94685.00
2023-04-27T03:45:35.170Z,94685.00
2023-04-27T03:46:35.191Z,94683.00
2023-04-27T03:47:35.148Z,94683.00
2023-04-27T03:48:35.096Z,94685.00
2023-04-27T03:49:35.088Z,94689.00
2023-04-27T03:50:35.129Z,94691.00
2023-04-27T03:51:35.204Z,94691.00
2023-04-27T03:52:35.153Z,94691.00
2023-04-27T03:53:35.131Z,94695.00
2023-04-27T03:54:35.116Z,94697.00
2023-04-27T03:55:35.134Z,94699.00
2023-04-27T03:56:35.152Z,94699.00
2023-04-27T03:57:35.178Z,94699.00
2023-04-27T03:58:35.166Z,94703.00
2023-04-27T03:59:35.167Z,94703.00
2023-04-27T04:00:35.154Z,94703.00
2023-04-27T04:01:35.186Z,94703.00
2023-04-27T04:02:35.229Z,94707.00
2023-04-27T04:03:35.360Z,94711.00
2023-04-27T04:04:35.342Z,94711.00
2023-04-27T04:05:35.225Z,94713.00
2023-04-27T04:06:35.222Z,94713.00
2023-04-27T04:07:35.202Z,94722.00
2023-04-27T04:08:35.226Z,94722.00
2023-04-27T04:09:35.238Z,94724.00
2023-04-27T04:10:35.255Z,94722.00
2023-04-27T04:11:35.230Z,94720.00
2023-04-27T04:12:35.256Z,94720.00
2023-04-27T04:13:35.266Z,94722.00
2023-04-27T04:14:35.286Z,94724.00
2023-04-27T04:15:35.305Z,94722.00
2023-04-27T04:16:35.318Z,94722.00
2023-04-27T04:17:35.300Z,94724.00
2023-04-27T04:18:35.271Z,94722.00
2023-04-27T04:19:35.262Z,94724.00
2023-04-27T04:20:35.289Z,94724.00
2023-04-27T04:21:35.315Z,94726.00
2023-04-27T04:22:35.273Z,94730.00
2023-04-27T04:23:35.288Z,94734.00
2023-04-27T04:24:35.255Z,94734.00
2023-04-27T04:25:35.288Z,94736.00
2023-04-27T04:26:35.268Z,94738.00
2023-04-27T04:27:35.275Z,94742.00
2023-04-27T04:28:36.009Z,94744.00
2023-04-27T04:29:35.298Z,94744.00
2023-04-27T04:30:35.271Z,94742.00
2023-04-27T04:31:35.305Z,94748.00
2023-04-27T04:32:35.307Z,94748.00
2023-04-27T04:33:35.271Z,94746.00
2023-04-27T04:34:35.304Z,94750.00
2023-04-27T04:35:35.314Z,94746.00
2023-04-27T04:36:35.266Z,94752.00
2023-04-27T04:37:35.281Z,94750.00
2023-04-27T04:38:35.265Z,94750.00
2023-04-27T04:39:35.247Z,94752.00
2023-04-27T04:40:35.253Z,94756.00
2023-04-27T04:41:35.252Z,94760.00
2023-04-27T04:42:35.245Z,94760.00
2023-04-27T04:43:35.242Z,94760.00
2023-04-27T04:44:35.216Z,94764.00
2023-04-27T04:45:35.244Z,94764.00
2023-04-27T04:46:35.330Z,94767.00
2023-04-27T04:47:35.557Z,94767.00
2023-04-27T04:48:35.252Z,94771.00
2023-04-27T04:49:35.267Z,94773.00
2023-04-27T04:50:35.537Z,94775.00
2023-04-27T04:51:35.260Z,94777.00
2023-04-27T04:52:35.271Z,94771.00
2023-04-27T04:53:35.274Z,94775.00
2023-04-27T04:54:35.262Z,94773.00
2023-04-27T04:55:35.265Z,94775.00
2023-04-27T04:56:35.279Z,94777.00
2023-04-27T04:57:35.302Z,94781.00
2023-04-27T04:58:35.377Z,94783.00
2023-04-27T04:59:35.288Z,94783.00
2023-04-27T05:00:35.321Z,94779.00
2023-04-27T05:01:35.358Z,94781.00
2023-04-27T05:02:35.772Z,94781.00
2023-04-27T05:03:35.436Z,94779.00
2023-04-27T05:04:35.487Z,94783.00
2023-04-27T05:05:35.549Z,94787.00
2023-04-27T05:06:35.284Z,94787.00
2023-04-27T05:07:35.281Z,94791.00
2023-04-27T05:08:35.304Z,94791.00
2023-04-27T05:09:35.284Z,94793.00
2023-04-27T05:10:35.301Z,94789.00
2023-04-27T05:11:35.285Z,94793.00
2023-04-27T05:12:35.306Z,94795.00
2023-04-27T05:13:35.290Z,94799.00
2023-04-27T05:14:35.264Z,94801.00
2023-04-27T05:15:35.300Z,94797.00
2023-04-27T05:16:35.495Z,94795.00
2023-04-27T05:17:35.373Z,94797.00
2023-04-27T05:18:35.286Z,94795.00
2023-04-27T05:19:35.295Z,94799.00
2023-04-27T05:20:36.059Z,94797.00
2023-04-27T05:21:35.348Z,94799.00
2023-04-27T05:22:35.311Z,94801.00
2023-04-27T05:23:35.309Z,94803.00
2023-04-27T05:24:35.314Z,94805.00
2023-04-27T05:25:35.377Z,94801.00
2023-04-27T05:26:35.393Z,94807.00
2023-04-27T05:27:35.554Z,94805.00
2023-04-27T05:28:35.462Z,94807.00
2023-04-27T05:29:35.401Z,94805.00
2023-04-27T05:30:35.421Z,94805.00
2023-04-27T05:31:36.099Z,94807.00
2023-04-27T05:32:38.090Z,94809.00
2023-04-27T05:33:35.462Z,94805.00
2023-04-27T05:34:35.422Z,94809.00
2023-04-27T05:35:36.239Z,94812.00
2023-04-27T05:36:35.429Z,94812.00
2023-04-27T05:37:35.407Z,94812.00
2023-04-27T05:38:35.414Z,94816.00
2023-04-27T05:39:35.447Z,94812.00
2023-04-27T05:40:35.405Z,94812.00
2023-04-27T05:41:35.380Z,94816.00
2023-04-27T05:42:35.551Z,94812.00
2023-04-27T05:43:35.416Z,94812.00
2023-04-27T05:44:36.106Z,94811.00
2023-04-27T05:45:35.430Z,94812.00
2023-04-27T05:46:37.177Z,94812.00
2023-04-27T05:47:35.391Z,94814.00
2023-04-27T05:48:35.393Z,94816.00
2023-04-27T05:49:35.322Z,94816.00
2023-04-27T05:50:35.329Z,94814.00
2023-04-27T05:51:38.056Z,94816.00
2023-04-27T05:52:37.610Z,94816.00
2023-04-27T05:53:35.498Z,94812.00
2023-04-27T05:54:37.048Z,94812.00
2023-04-27T05:55:35.336Z,94816.00
2023-04-27T05:56:35.420Z,94818.00
2023-04-27T05:57:35.266Z,94818.00
2023-04-27T05:58:35.268Z,94818.00
2023-04-27T05:59:38.106Z,94816.00
2023-04-27T06:00:35.573Z,94814.00
2023-04-27T06:01:35.242Z,94814.00
2023-04-27T06:02:35.397Z,94816.00
2023-04-27T06:03:35.641Z,94814.00
2023-04-27T06:04:35.406Z,94816.00
2023-04-27T06:05:35.375Z,94814.00
2023-04-27T06:06:35.201Z,94816.00
2023-04-27T06:07:35.233Z,94812.00
2023-04-27T06:08:35.422Z,94812.00
2023-04-27T06:09:35.286Z,94812.00
2023-04-27T06:10:35.192Z,94818.00
2023-04-27T06:11:35.189Z,94822.00
2023-04-27T06:12:37.145Z,94822.00
2023-04-27T06:13:35.169Z,94822.00
2023-04-27T06:14:35.169Z,94822.00
2023-04-27T06:15:35.264Z,94820.00
2023-04-27T06:16:35.262Z,94824.00
2023-04-27T06:17:35.173Z,94822.00
2023-04-27T06:18:35.130Z,94824.00
2023-04-27T06:19:35.130Z,94826.00
2023-04-27T06:20:35.641Z,94826.00
2023-04-27T06:21:35.170Z,94828.00
2023-04-27T06:22:35.140Z,94828.00
2023-04-27T06:23:35.109Z,94828.00
2023-04-27T06:24:35.274Z,94834.00
2023-04-27T06:25:35.108Z,94834.00
2023-04-27T06:26:35.247Z,94830.00
2023-04-27T06:27:35.072Z,94828.00
2023-04-27T06:28:38.071Z,94826.00
2023-04-27T06:29:35.068Z,94826.00
2023-04-27T06:30:36.441Z,94826.00
2023-04-27T06:31:35.182Z,94826.00
2023-04-27T06:32:35.665Z,94828.00
2023-04-27T06:33:35.088Z,94830.00
2023-04-27T06:34:35.071Z,94832.00
2023-04-27T06:35:35.184Z,94832.00
2023-04-27T06:36:35.058Z,94832.00
2023-04-27T06:37:35.096Z,94834.00
2023-04-27T06:38:35.067Z,94832.00
2023-04-27T06:39:35.105Z,94834.00
2023-04-27T06:40:35.099Z,94836.00
2023-04-27T06:41:35.467Z,94836.00
2023-04-27T06:42:35.137Z,94838.00
2023-04-27T06:43:35.207Z,94836.00
2023-04-27T06:44:35.309Z,94834.00
2023-04-27T06:45:35.210Z,94836.00
2023-04-27T06:46:35.321Z,94836.00
2023-04-27T06:47:35.177Z,94838.00
2023-04-27T06:48:35.189Z,94834.00
2023-04-27T06:49:35.204Z,94836.00
2023-04-27T06:50:35.623Z,94836.00
2023-04-27T06:51:35.165Z,94840.00
2023-04-27T06:52:35.336Z,94840.00
2023-04-27T06:53:35.189Z,94840.00
2023-04-27T06:54:35.184Z,94840.00
2023-04-27T06:55:35.229Z,94840.00
2023-04-27T06:56:35.194Z,94840.00
2023-04-27T06:57:35.304Z,94840.00
2023-04-27T06:58:35.295Z,94842.00
2023-04-27T06:59:35.257Z,94842.00
2023-04-27T07:00:35.576Z,94844.00
2023-04-27T07:01:35.359Z,94846.00
2023-04-27T07:02:35.381Z,94846.00
2023-04-27T07:03:35.524Z,94844.00
2023-04-27T07:04:35.353Z,94846.00
2023-04-27T07:05:35.312Z,94846.00
2023-04-27T07:06:35.314Z,94846.00
2023-04-27T07:07:35.311Z,94848.00
2023-04-27T07:08:35.383Z,94848.00
2023-04-27T07:09:35.344Z,94848.00
2023-04-27T07:10:35.422Z,94846.00
2023-04-27T07:11:35.384Z,94848.00
2023-04-27T07:12:35.417Z,94850.00
2023-04-27T07:13:35.566Z,94848.00
2023-04-27T07:14:35.724Z,94850.00
2023-04-27T07:15:35.404Z,94848.00
2023-04-27T07:16:35.547Z,94850.00
2023-04-27T07:17:35.417Z,94850.00
2023-04-27T07:18:36.118Z,94848.00
2023-04-27T07:19:35.528Z,94850.00
2023-04-27T07:20:35.451Z,94852.00
2023-04-27T07:21:35.433Z,94846.00
2023-04-27T07:22:35.457Z,94844.00
2023-04-27T07:23:35.460Z,94848.00
2023-04-27T07:24:36.094Z,94848.00
2023-04-27T07:25:35.545Z,94850.00
2023-04-27T07:26:35.628Z,94846.00
2023-04-27T07:27:35.447Z,94844.00
2023-04-27T07:28:35.454Z,94846.00
2023-04-27T07:29:35.421Z,94850.00
2023-04-27T07:30:35.412Z,94850.00
2023-04-27T07:31:35.478Z,94852.00
2023-04-27T07:32:35.443Z,94854.00
2023-04-27T07:33:35.488Z,94856.00
2023-04-27T07:34:48.865Z,94854.00
2023-04-27T07:35:36.456Z,94854.00
2023-04-27T07:36:35.429Z,94856.00
2023-04-27T07:37:35.398Z,94854.00
2023-04-27T07:38:35.571Z,94854.00
2023-04-27T07:39:35.403Z,94858.00
2023-04-27T07:40:35.432Z,94858.00
2023-04-27T07:41:35.613Z,94858.00
2023-04-27T07:42:35.348Z,94859.00
2023-04-27T07:43:35.369Z,94859.00
2023-04-27T07:44:35.374Z,94859.00
2023-04-27T07:45:35.371Z,94859.00
2023-04-27T07:46:35.571Z,94859.00
2023-04-27T07:47:35.424Z,94863.00
2023-04-27T07:48:35.632Z,94861.00
2023-04-27T07:49:35.351Z,94863.00
2023-04-27T07:50:35.341Z,94861.00
2023-04-27T07:51:35.611Z,94861.00
2023-04-27T07:52:35.324Z,94854.00
2023-04-27T07:53:35.297Z,94858.00
2023-04-27T07:54:35.282Z,94859.00
2023-04-27T07:55:35.275Z,94861.00
2023-04-27T07:56:35.295Z,94865.00
2023-04-27T07:57:35.253Z,94867.00
2023-04-27T07:58:35.355Z,94869.00
2023-04-27T07:59:35.262Z,94869.00
2023-04-27T08:00:35.261Z,94871.00
2023-04-27T08:01:35.261Z,94869.00
2023-04-27T08:02:35.428Z,94871.00
2023-04-27T08:03:35.933Z,94873.00
2023-04-27T08:04:35.731Z,94873.00
2023-04-27T08:05:35.605Z,94873.00
2023-04-27T08:06:35.835Z,94877.00
2023-04-27T08:07:39.558Z,94877.00
2023-04-27T08:08:37.121Z,94875.00
2023-04-27T08:09:35.206Z,94877.00
2023-04-27T08:10:35.214Z,94875.00
2023-04-27T08:11:36.088Z,94875.00
2023-04-27T08:12:35.154Z,94875.00
2023-04-27T08:13:35.169Z,94877.00
2023-04-27T08:14:35.154Z,94877.00
2023-04-27T08:15:35.138Z,94877.00
2023-04-27T08:16:35.189Z,94875.00
2023-04-27T08:17:35.167Z,94875.00
2023-04-27T08:18:35.094Z,94875.00
2023-04-27T08:19:35.128Z,94877.00
2023-04-27T08:20:35.198Z,94873.00
2023-04-27T08:21:35.097Z,94873.00
2023-04-27T08:22:35.088Z,94875.00
2023-04-27T08:23:35.106Z,94869.00
2023-04-27T08:24:35.092Z,94875.00
2023-04-27T08:25:35.061Z,94873.00
2023-04-27T08:26:35.237Z,94875.00
2023-04-27T08:27:35.054Z,94881.00
2023-04-27T08:28:35.127Z,94877.00
2023-04-27T08:29:35.229Z,94881.00
2023-04-27T08:30:35.124Z,94879.00
2023-04-27T08:31:35.621Z,94877.00
2023-04-27T08:32:35.399Z,94875.00
2023-04-27T08:33:35.218Z,94875.00
2023-04-27T08:34:35.257Z,94871.00
2023-04-27T08:35:35.223Z,94869.00
2023-04-27T08:36:35.190Z,94871.00
2023-04-27T08:37:35.191Z,94865.00
2023-04-27T08:38:35.279Z,94865.00
2023-04-27T08:39:35.214Z,94861.00
2023-04-27T08:40:35.197Z,94861.00
2023-04-27T08:41:35.337Z,94863.00
2023-04-27T08:42:35.240Z,94863.00
2023-04-27T08:43:35.596Z,94863.00
2023-04-27T08:44:35.239Z,94863.00
2023-04-27T08:45:35.243Z,94863.00
2023-04-27T08:46:35.283Z,94863.00
2023-04-27T08:47:43.308Z,94863.00
2023-04-27T08:48:36.278Z,94861.00
2023-04-27T08:49:35.279Z,94861.00
2023-04-27T08:50:35.275Z,94867.00
2023-04-27T08:51:35.294Z,94867.00
2023-04-27T08:52:35.225Z,94865.00
2023-04-27T08:53:35.228Z,94863.00
2023-04-27T08:54:35.201Z,94863.00
2023-04-27T08:55:35.231Z,94858.00
2023-04-27T08:56:35.228Z,94858.00
2023-04-27T08:57:35.184Z,94861.00
2023-04-27T08:58:35.425Z,94859.00
2023-04-27T08:59:35.188Z,94859.00
2023-04-27T09:00:35.168Z,94859.00
2023-04-27T09:01:35.205Z,94859.00
2023-04-27T09:02:35.368Z,94859.00
2023-04-27T09:03:35.305Z,94852.00
2023-04-27T09:04:35.203Z,94859.00
2023-04-27T09:05:35.216Z,94863.00
2023-04-27T09:06:35.434Z,94863.00
2023-04-27T09:07:35.218Z,94863.00
2023-04-27T09:08:35.212Z,94859.00
2023-04-27T09:09:35.240Z,94861.00
2023-04-27T09:10:35.339Z,94856.00
2023-04-27T09:11:35.334Z,94859.00
2023-04-27T09:12:35.353Z,94858.00
2023-04-27T09:13:36.138Z,94861.00
2023-04-27T09:14:35.345Z,94859.00
2023-04-27T09:15:35.379Z,94854.00
2023-04-27T09:16:35.896Z,94852.00
2023-04-27T09:17:35.439Z,94848.00
2023-04-27T09:18:35.504Z,94848.00
2023-04-27T09:19:35.642Z,94848.00
2023-04-27T09:20:35.545Z,94844.00
2023-04-27T09:21:35.589Z,94846.00
2023-04-27T09:22:35.580Z,94840.00
2023-04-27T09:23:35.626Z,94842.00
2023-04-27T09:24:35.647Z,94840.00
2023-04-27T09:25:35.732Z,94836.00
2023-04-27T09:26:35.803Z,94838.00
2023-04-27T09:27:35.731Z,94838.00
2023-04-27T09:28:35.755Z,94838.00
2023-04-27T09:29:35.778Z,94836.00
2023-04-27T09:30:35.849Z,94838.00
2023-04-27T09:31:35.952Z,94838.00
2023-04-27T09:32:35.842Z,94840.00
2023-04-27T09:33:35.856Z,94838.00
2023-04-27T09:34:35.864Z,94832.00
2023-04-27T09:35:35.870Z,94836.00
2023-04-27T09:36:35.943Z,94830.00
2023-04-27T09:37:35.907Z,94828.00
2023-04-27T09:38:35.922Z,94828.00
2023-04-27T09:39:35.945Z,94828.00
2023-04-27T09:40:36.183Z,94824.00
2023-04-27T09:41:35.977Z,94826.00
2023-04-27T09:42:36.085Z,94822.00
2023-04-27T09:43:35.996Z,94820.00
2023-04-27T09:44:36.024Z,94820.00
2023-04-27T09:45:36.058Z,94822.00
2023-04-27T09:46:36.228Z,94824.00
2023-04-27T09:47:36.146Z,94820.00
2023-04-27T09:48:36.094Z,94820.00
2023-04-27T09:49:36.162Z,94816.00
2023-04-27T09:50:37.911Z,94816.00
2023-04-27T09:51:36.145Z,94814.00
2023-04-27T09:52:36.091Z,94809.00
2023-04-27T09:53:36.142Z,94809.00
2023-04-27T09:54:36.129Z,94807.00
2023-04-27T09:55:36.138Z,94803.00
2023-04-27T09:56:36.142Z,94803.00
2023-04-27T09:57:36.153Z,94801.00
2023-04-27T09:58:36.147Z,94801.00
2023-04-27T09:59:36.153Z,94805.00
2023-04-27T10:00:36.142Z,94803.00
2023-04-27T10:01:37.506Z,94799.00
2023-04-27T10:02:49.983Z,94799.00
2023-04-27T10:03:37.237Z,94793.00
2023-04-27T10:04:36.351Z,94795.00
2023-04-27T10:05:36.128Z,94791.00
2023-04-27T10:06:36.110Z,94789.00
2023-04-27T10:07:36.136Z,94785.00
2023-04-27T10:08:36.061Z,94783.00
2023-04-27T10:09:36.094Z,94781.00
2023-04-27T10:10:36.127Z,94783.00
2023-04-27T10:11:36.095Z,94781.00
2023-04-27T10:12:36.061Z,94781.00
2023-04-27T10:13:36.045Z,94779.00
2023-04-27T10:14:36.093Z,94773.00
2023-04-27T10:15:36.164Z,94775.00
2023-04-27T10:16:36.262Z,94767.00
2023-04-27T10:17:36.300Z,94769.00
2023-04-27T10:18:36.210Z,94769.00
2023-04-27T10:19:36.244Z,94765.00
2023-04-27T10:20:36.377Z,94767.00
2023-04-27T10:21:36.319Z,94767.00
2023-04-27T10:22:36.346Z,94769.00
2023-04-27T10:23:36.393Z,94777.00
2023-04-27T10:24:36.448Z,94773.00
2023-04-27T10:25:36.452Z,94771.00
2023-04-27T10:26:37.939Z,94771.00
2023-04-27T10:27:36.548Z,94769.00
2023-04-27T10:28:36.519Z,94764.00
2023-04-27T10:29:36.632Z,94764.00
2023-04-27T10:30:36.584Z,94758.00
2023-04-27T10:31:36.513Z,94762.00
2023-04-27T10:32:36.528Z,94764.00
2023-04-27T10:33:36.463Z,94758.00
2023-04-27T10:34:37.179Z,94760.00
2023-04-27T10:35:36.484Z,94762.00
2023-04-27T10:36:36.442Z,94758.00
2023-04-27T10:37:36.588Z,94760.00
2023-04-27T10:38:37.161Z,94756.00
2023-04-27T10:39:48.071Z,94756.00
2023-04-27T10:40:37.437Z,94754.00
2023-04-27T10:41:36.653Z,94752.00
2023-04-27T10:42:36.389Z,94750.00
2023-04-27T10:43:36.382Z,94748.00
2023-04-27T10:44:36.555Z,94748.00
2023-04-27T10:45:36.490Z,94748.00
2023-04-27T10:46:36.849Z,94744.00
2023-04-27T10:47:36.577Z,94746.00
2023-04-27T10:48:36.338Z,94742.00
2023-04-27T10:49:36.344Z,94740.00
2023-04-27T10:50:36.463Z,94736.00
2023-04-27T10:51:36.339Z,94736.00
2023-04-27T10:52:36.348Z,94734.00
2023-04-27T10:53:36.371Z,94730.00
2023-04-27T10:54:36.329Z,94728.00
2023-04-27T10:55:36.402Z,94726.00
2023-04-27T10:56:36.383Z,94724.00
2023-04-27T10:57:36.397Z,94726.00
2023-04-27T10:58:48.132Z,94726.00
2023-04-27T10:59:37.412Z,94724.00
2023-04-27T11:00:36.460Z,94726.00
2023-04-27T11:01:36.441Z,94720.00
2023-04-27T11:02:36.553Z,94722.00
2023-04-27T11:03:36.698Z,94718.00
2023-04-27T11:04:36.415Z,94720.00
2023-04-27T11:05:36.337Z,94717.00
2023-04-27T11:06:36.365Z,94717.00
2023-04-27T11:07:36.326Z,94717.00
2023-04-27T11:08:36.356Z,94717.00
2023-04-27T11:09:36.351Z,94715.00
2023-04-27T11:10:36.408Z,94715.00
2023-04-27T11:11:36.445Z,94715.00
2023-04-27T11:12:36.417Z,94715.00
2023-04-27T11:13:36.483Z,94717.00
2023-04-27T11:14:36.411Z,94717.00
2023-04-27T11:15:36.468Z,94720.00
2023-04-27T11:16:36.509Z,94718.00
2023-04-27T11:17:36.506Z,94720.00
2023-04-27T11:18:36.671Z,94720.00
2023-04-27T11:19:36.553Z,94720.00
2023-04-27T11:20:36.610Z,94720.00
2023-04-27T11:21:37.194Z,94722.00
2023-04-27T11:22:36.697Z,94720.00
2023-04-27T11:23:36.794Z,94720.00
2023-04-27T11:24:37.168Z,94722.00
2023-04-27T11:25:36.907Z,94717.00
2023-04-27T11:26:37.764Z,94713.00
2023-04-27T11:27:37.064Z,94718.00
2023-04-27T11:28:37.073Z,94718.00
2023-04-27T11:29:37.691Z,94718.00
2023-04-27T11:30:37.136Z,94717.00
2023-04-27T11:31:37.695Z,94711.00
2023-04-27T11:32:37.240Z,94711.00
2023-04-27T11:33:37.254Z,94709.00
2023-04-27T11:34:37.238Z,94709.00
2023-04-27T11:35:37.256Z,94711.00
2023-04-27T11:36:37.321Z,94711.00
2023-04-27T11:37:37.249Z,94709.00
2023-04-27T11:38:37.310Z,94709.00
2023-04-27T11:39:37.381Z,94703.00
2023-04-27T11:40:37.352Z,94703.00
2023-04-27T11:41:37.467Z,94703.00
2023-04-27T11:42:37.424Z,94703.00
2023-04-27T11:43:37.434Z,94703.00
2023-04-27T11:44:37.502Z,94701.00